Windsor Locks, CT

4:00 PM EDT on August 22, 2014 (GMT -0400)
Barnes Municipal | Change Station
CLOSE
Current Station
Airport
Location: Westfield,
Elevation: 269 ft
Nearby Weather Stations

Elev 269 ft 42.16 °N, 72.71 °W | Updated 7 minutes ago

Overcast
Overcast
68 °F
Feels Like 68 °F
N
6
Wind Variable Wind from North

Today
High -- | Low -- °F
--% Chance of Precip.
Yesterday
High -- | Low -- °F
Precip. -- in
6:05 AM 7:40 PM
Waning Crescent, 7% visible
Pressure 30.07 in
Visibility 10.0 miles
Clouds Scattered Clouds 1000 ft
Overcast 5500 ft
Dew Point 62 °F
Humidity 81%
Rainfall 0.15 in
Snow Depth Not available.
UV 2 out of 12
Pollen 5.00 out of 12
Ozone Good
PM2.5 Good
Flu Activity Not available.
METAR KBAF 221953Z 36005KT 10SM SCT010 OVC055 20/17 A3007 RMK AO2 SLP181 T02000167

More Conditions Fewer Conditions

Pressure 30.07 in
Visibility 10.0 miles
Clouds Scattered Clouds 1000 ft
Overcast 5500 ft
Dew Point 62 °F
Humidity 81%
Rainfall 0.15 in
Snow Depth Not available.
UV 2 out of 12
Pollen 5.00 out of 12
Ozone Good
PM2.5 Good
Flu Activity Not available.
METAR KBAF 221953Z 36005KT 10SM SCT010 OVC055 20/17 A3007 RMK AO2 SLP181 T02000167

More Conditions Fewer Conditions

10-Day Weather Forecast

Almanac

Astronomy

Aug. 22, 2014 Rise Set
Actual Time 6:05 AM EDT 7:40 PM EDT
Civil Twilight 5:36 AM EDT 8:09 PM EDT
Nautical Twilight 5:00 AM EDT 8:45 PM EDT
Astronomical Twilight 4:22 AM EDT 9:22 PM EDT
Moon 3:24 AM EDT 5:47 PM EDT
Length of Visible Light 14h 33m
Length of Day
13h 34m
Tomorrow will be 2m 36s shorter.
Waning Crescent, 7% of the Moon is Illuminated
Today
Waning Crescent
Aug 25
New
Sep 2
First Quarter
Sep 8
Full
Sep 15
Last Quarter

Today's Extremes

State Highs State Lows

Community

WunderPhotos

Upload Photos

1,746,239 photos uploaded!

Nearby

Air Quality

  Air Quality AQ Index Pollutant
Yesterday Good
OZONE
Yesterday Good
PM2.5
Current Good
PM2.5
Current Good
OZONE
Friday Good
PM2.5
Friday Good
OZONE
Saturday Good
PM2.5
Saturday Good
OZONE
Sunday Good
PM2.5
Sunday Good
OZONE
Monday Moderate
PM2.5
Monday Good
OZONE

Snow Depth

Station Depth Elevation
No new snow has been reported.

Earthquake Activity

City Distance Mag. Time & Date
No recent earthquake activity has been reported nearby.
Minimum magnitude displayed is 2.5.

Coastal Water Temperatures

Place Temperature
No Stations Reporting

Nearby Weather Stations